Aviation Digital Data Service (ADDS)

Output produced by METARs form (0713 UTC 24 March 2019)
found at http://www.aviationweather.gov/metar/data/
 
EDAC 240650Z AUTO 36005KT 4300 // OVC007/// 07/06 Q1026
EDMA 240650Z AUTO 14002KT 8000 // NCD 03/02 Q1024
EDDW 240650Z VRB01KT 8000 MIFG NSC 04/03 Q1029 NOSIG
TAF EDDW 240500Z 2406/2506 VRB02KT 9999 FEW045 
     TEMPO 2406/2408 3500 BCFG 
     PROB30 
     TEMPO 2406/2408 0400 FG BKN001 
     BECMG 2410/2412 28009KT 
     TEMPO 2501/2506 27015G25KT SHRA BKN014CB 
     PROB30 
     TEMPO 2501/2506 4500 TSRA BKN008CB
       
ETSB 240620Z AUTO 04008KT 8000 // ////// 05/04 Q1026 ///
ETHB 240645Z 06004KT 8000 VCFG SCT005 04/03 Q1028 BLU+
ETHC 240646Z VRB01KT 1600 BR BKN120 01/01 Q1028 YLO
EDLW 240650Z VRB02KT CAVOK 04/03 Q1027
TAF EDLW 240500Z 2406/2506 VRB03KT 9999 BKN035 
     BECMG 2409/2412 33006KT 
     BECMG 2418/2421 26006KT 
     BECMG 2501/2504 27011KT
       
EDDC 240650Z VRB02KT 7000 OVC033 07/05 Q1026 NOSIG
TAF EDDC 240500Z 2406/2506 35004KT 4000 BR BKN040 
     BECMG 2406/2409 9999 
     PROB30 
     TEMPO 2406/2411 BKN009 
     BECMG 2413/2415 28006KT 
     BECMG 2502/2504 26011KT
       
EDDL 240650Z 02006KT 9999 BKN048 07/03 Q1028 NOSIG
TAF EDDL 240500Z 2406/2512 02006KT 9999 BKN020 
     PROB30 
     TEMPO 2406/2408 3500 BR BKN012 
     BECMG 2409/2412 32007KT 
     BECMG 2422/2502 26010KT 
     BECMG 2507/2510 29015G25KT
       
EDDE 240650Z 06005KT 9999 OVC011 06/04 Q1026 TEMPO BKN009
TAF EDDE 240500Z 2406/2506 03005KT 9999 BKN015 
     TEMPO 2406/2415 BKN010 
     PROB30 
     TEMPO 2406/2409 3000 -RADZ BKN005
       
ETHS 240620Z 36001KT 2000 BR BKN120 M00/M01 Q1029 YLO
EDFH 240650Z 04004KT 020V080 0500 R03/0600V0900N FG SCT001 04/04 Q1026
TAF EDFH 240500Z 2406/2506 04005KT 7000 FEW020 
     TEMPO 2406/2410 0800 FG OVC001 
     BECMG 2409/2411 33008KT 
     PROB30 
     TEMPO 2410/2417 4000 -DZ BR BKN008
       
EDDF 240650Z 03008KT 6000 FEW025 07/05 Q1026 TEMPO 4500 BR
TAF EDDF 240500Z 2406/2512 03006KT 9999 FEW035 
     PROB30 
     TEMPO 2406/2408 4000 BR 
     BECMG 2407/2411 BKN035 
     BECMG 2411/2413 32007KT 
     BECMG 2417/2419 CAVOK 
     BECMG 2423/2501 26005KT 
     BECMG 2506/2509 29013KT 
     PROB30 
     TEMPO 2510/2512 28015G25KT SHRA BKN030CB
       
EDNY 240650Z AUTO VRB01KT 9000 // NCD 04/02 Q1024
TAF EDNY 240500Z 2406/2506 VRB03KT CAVOK 
     BECMG 2409/2411 24007KT 
     BECMG 2417/2419 VRB03KT
       
ETHF 240620Z 03003KT 9999 BKN012 07/04 Q1027 GRN
ETIC 240656Z AUTO 00000KT 3600 BR OVC014 03/03 A3025 RMK AO2 SLP258 T00320032 FZRANO $
EDDH 240650Z 32002KT CAVOK 04/03 Q1028 NOSIG
TAF EDDH 240500Z 2406/2512 29003KT 9999 FEW045 
     PROB30 
     TEMPO 2406/2408 2000 BCFG 
     BECMG 2408/2410 27009KT 
     TEMPO 2501/2506 27015G25KT SHRA BKN014CB 
     PROB30 
     TEMPO 2501/2506 4500 TSRA BKN008CB 
     BECMG 2506/2508 29015G25KT 
     PROB40 
     TEMPO 2508/2512 32020G35KT 4500 TSRA BKN008CB
       
EDHI 240650Z AUTO VRB01KT 5000 // FEW110/// OVC130/// 04/04 Q1028
EDDV 240650Z VRB01KT 0800 0500W R27R/0800V1100N R27L/1000N FG SCT001 02/02 Q1028 BECMG 2500 BR
TAF EDDV 240500Z 2406/2506 VRB02KT 0300 FG BKN001 
     BECMG 2406/2408 2000 BR BKN003 
     BECMG 2408/2411 29007KT 9999 SCT030 
     TEMPO 2503/2506 27015G25KT SHRA BKN014CB 
     PROB30 
     TEMPO 2505/2506 4500 TSRA BKN008CB
       
ETIH 240656Z AUTO 00000KT 2000 BR CLR 04/04 A3025 RMK AO2 SLP258 T00400040 $
ETNH 240632Z 20002KT 5000 BR BKN110 02/01 Q1028 WHT
TAF COR ETNH 240535Z 2406/2418 34005KT 5000 BR BKN100 
     TEMPO 2406/2407 VRB03KT 0500 FG BKN001 
     TEMPO 2407/2408 VRB03KT 1200 BR SCT003 BKN100 BY ETGL
       
ETSH 240639Z 35004KT 3000 BCFG BR FEW006 BKN026 05/04 Q1027 YLO
ETSI 240620Z AUTO 00000KT 3800 // ////// 01/M01 Q1024 ///
EDSB 240650Z 06003KT 3200 BR NSC 05/04 Q1025
TAF EDSB 240500Z 2406/2506 36004KT CAVOK 
     TEMPO 2406/2409 4000 BR
       
EDVK 240650Z 35005KT 9999 OVC024 05/03 Q1027
TAF EDVK 240653Z 2407/2415 35005KT 9999 OVC025
       
EDDK 240650Z VRB01KT 8000 -RA FEW025 OVC038 06/05 Q1027 TEMPO BKN008
TAF EDDK 240500Z 2406/2512 VRB03KT 9999 BKN035 
     TEMPO 2406/2409 3500 BR BKN012 
     BECMG 2409/2412 32008KT 
     BECMG 2507/2510 29015G25KT
       
ETNL 240620Z 26004KT 9999 BKN100 03/02 Q1028 BLU
TAF ETNL 240500Z 2406/2418 30007KT 9999 NSW BKN120 BY ETGL
       
ETHL 240620Z 17002KT 8000 FEW340 02/M01 Q1024 BLU+
ETSL 240620Z AUTO 20003KT 7000 // ////// 02/00 Q1024 ///
EDDP 240650Z 35008KT 9000 BKN011 BKN039 04/03 Q1027 TEMPO BKN008
TAF EDDP 240500Z 2406/2506 36005KT 9999 BKN040 
     TEMPO 2406/2411 BKN010 
     BECMG 2415/2417 28006KT 
     BECMG 2500/2502 25011KT
       
EDHL 240650Z 26002KT CAVOK 04/03 Q1028
TAF EDHL 240559Z 2406/2415 VRB02KT CAVOK 
     BECMG 2408/2411 27007KT
       
EDFM 240650Z VRB03KT 5000 BR NSC 06/04 Q1026
EDLN 240650Z 01004KT 9999 SCT044 06/04 Q1028
EDDM 240650Z 25003KT 6000 NSC 03/02 Q1024 NOSIG
TAF EDDM 240500Z 2406/2512 VRB03KT CAVOK 
     PROB30 
     TEMPO 2406/2408 2000 BR 
     BECMG 2409/2411 29007KT 
     PROB30 
     TEMPO 2422/2507 BKN012 
     BECMG 2507/2510 30015G30KT 
     PROB30 
     TEMPO 2510/2512 SHRA BKN020CB
       
EDDG 240650Z 06003KT 360V120 9999 BKN006 04/02 Q1028 BECMG FEW010
TAF EDDG 240500Z 2406/2506 36005KT 9999 BKN012 
     BECMG 2406/2408 1500 BR BKN007 
     TEMPO 2406/2408 0500 FG 
     BECMG 2409/2412 29006KT 9999 SCT012 
     BECMG 2500/2503 26012KT
       
ETSN 240703Z VRB01KT 5000 BR 03/02 Q1024 WHT
TAF ETSN 240500Z 2406/2415 VRB03KT 5000 MIFG FEW300 
     TEMPO 2406/2408 VRB02KT 0500 FZFG SKC 
     BECMG 2408/2410 25005KT 9999 NSW FEW050 SCT300 BY ETGL
       
ETHN 240620Z 06002KT 3500 BR 04/03 Q1024 YLO
ETMN 240620Z 03001KT 9999 FEW015 BKN120 03/02 Q1029 BLU
ETNN 240620Z 34004KT 4500 BR BKN007 07/06 Q1027 GRN
EDDN 240650Z VRB01KT 1600 BCFG BR NSC 03/03 Q1025 BECMG 3000
TAF COR EDDN 240544Z 2406/2506 VRB03KT 1200 BR NSC 
     TEMPO 2406/2408 0300 FG OVC001 
     BECMG 2408/2410 9999 
     TEMPO 2410/2412 BKN012 
     BECMG 2410/2412 30005KT 
     BECMG 2413/2415 31010KT 
     BECMG 2418/2420 28005KT 
     PROB30 
     TEMPO 2418/2421 BKN012
       
EDMO 240650Z AUTO 22006KT 9000 // NCD 04/02 Q1023
EDLP 240650Z 00000KT 9999 FEW011 BKN020 OVC047 04/04 Q1027
TAF EDLP 240500Z 2406/2506 VRB03KT 9999 BKN035 
     TEMPO 2406/2409 3000 BR BKN010 
     BECMG 2409/2412 32006KT 
     BECMG 2419/2422 25011KT
       
ETAR 240646Z AUTO 09003KT 3600 BR CLR 01/00 A3030 RMK AO2 SLP273 $
TAF AMD ETAR 240629Z 2406/2508 04006KT 3200 BR SCT040 QNH3029INS 
     BECMG 2406/2407 04006KT 9999 NSW SCT040 QNH3027INS 
     BECMG 2414/2415 34009KT 9999 BKN030 QNH3027INS 
     BECMG 2421/2422 32009KT 9999 SCT040 QNH3021INS 
     BECMG 2506/2507 26012G20KT 9999 BKN030 620402 QNH3024INS TX10/2415Z
TNM02/2406Z
       
EDDR 240650Z 04006KT 010V080 7000 NSC 05/03 Q1025
TAF EDDR 240500Z 2406/2506 05006KT 8000 NSC 
     TEMPO 2406/2408 4000 BR 
     BECMG 2409/2412 33006KT
       
ETNS 240620Z AUTO 23002KT 6000 // ////// 02/01 Q1028 ///
EDDB 240650Z 02003KT 360V080 9999 FEW042 06/02 Q1027 NOSIG
TAF EDDB 240500Z 2406/2506 03004KT CAVOK 
     BECMG 2409/2411 30006KT 
     BECMG 2422/2424 24010KT
       
EDGS 240650Z 08004KT 1700 BCFG BR BKN002 05/05 Q1025
ETAD 240656Z AUTO 09005KT 6000 BR SCT016 SCT055 05/04 A3030 RMK AO2 SLP263 T00490043 $
EDDS 240650Z 08003KT 3200 BR SCT005 03/01 Q1024 BECMG 6000
TAF EDDS 240500Z 2406/2506 VRB03KT CAVOK 
     TEMPO 2406/2408 3500 BR 
     BECMG 2408/2410 32005KT 
     BECMG 2411/2413 32010KT 
     BECMG 2418/2421 30005KT
       
EDDT 240650Z 36004KT 330V060 CAVOK 05/02 Q1028 NOSIG
TAF EDDT 240500Z 2406/2506 29004KT CAVOK 
     BECMG 2422/2424 26009KT
       
ETOU 240656Z AUTO 00000KT 5000 BR CLR 06/04 A3031 RMK AO2 SLP270 T00590039 $
ETNT 240620Z VRB02KT 9999 BKN120 03/02 Q1029 BLU
TAF ETNT 240500Z 2406/2415 28005KT 9999 NSW BKN130 BKN230 
     PROB30 2406/2408 VRB02KT 3000 MIFG SCT140 BKN230 BY ETGL
       
ETNW 240620Z 00000KT 0200 FG VV001 03/02 Q1028 RED
TAF ETNW 240510Z 2406/2506 VRB03KT 2000 BR SCT005 SCT130 BKN320 
     TEMPO 2406/2408 VRB01KT 0400 FG BKN001 BKN320 
     BECMG 2408/2410 30005KT 9999 NSW BKN130 
     BECMG 2501/2503 27012G24KT 9999 NSW SCT005 BKN010 BY ETGL